Time;durP1;ratioP1;P1;durP2;ratioP2;P2;SDS_P1;SDS_P2;PMS_P1;PMS_P2;Temp;Humidity;BMP_temperature;BMP_pressure;BME280_temperature;BME280_humidity;BME280_pressure;Samples;Min_cycle;Max_cycle;Signal;HPM_P1;HPM_P2
2021/05/23 00:01:30;;;;;;;5.80;3.87;;;10.20;99.90;;;;;;5001310;28;20200;-72
2021/05/23 00:03:56;;;;;;;9.07;4.50;;;10.20;99.90;;;;;;5001607;28;20212;-73
2021/05/23 00:06:21;;;;;;;6.63;4.20;;;10.20;99.90;;;;;;5033613;28;20551;-73
2021/05/23 00:08:47;;;;;;;5.43;4.03;;;10.10;99.90;;;;;;5000893;28;20631;-73
2021/05/23 00:11:12;;;;;;;7.93;3.50;;;10.20;99.90;;;;;;5033851;28;20625;-73
2021/05/23 00:13:40;;;;;;;5.33;3.77;;;10.10;99.90;;;;;;5017230;28;20550;-73
2021/05/23 00:16:08;;;;;;;5.40;3.40;;;10.10;99.90;;;;;;5017052;28;20239;-73
2021/05/23 00:18:37;;;;;;;4.53;3.30;;;10.10;99.90;;;;;;5000576;28;20230;-73
2021/05/23 00:21:03;;;;;;;5.10;3.30;;;10.10;99.90;;;;;;5000759;28;20277;-74
2021/05/23 00:23:29;;;;;;;4.73;3.00;;;10.00;99.90;;;;;;5016571;28;20241;-73
2021/05/23 00:25:55;;;;;;;6.13;3.03;;;10.00;99.90;;;;;;5016522;28;20703;-73
2021/05/23 00:28:20;;;;;;;4.90;2.87;;;10.00;99.90;;;;;;5016718;28;20650;-73
2021/05/23 00:30:46;;;;;;;5.17;2.80;;;10.00;99.90;;;;;;5016837;28;20183;-73
2021/05/23 00:33:11;;;;;;;4.67;2.83;;;10.00;99.90;;;;;;5033069;28;20348;-74
2021/05/23 00:35:37;;;;;;;3.20;2.70;;;10.00;99.90;;;;;;5000514;28;20314;-73
2021/05/23 00:38:03;;;;;;;4.07;3.00;;;9.90;99.90;;;;;;5016656;28;20225;-73
2021/05/23 00:40:29;;;;;;;4.47;2.70;;;9.90;99.90;;;;;;5016888;28;20186;-73
2021/05/23 00:42:54;;;;;;;4.00;3.00;;;9.90;99.90;;;;;;5033322;28;20222;-73
2021/05/23 00:45:20;;;;;;;4.23;2.80;;;9.90;99.90;;;;;;5032929;28;20182;-73
2021/05/23 00:47:46;;;;;;;4.77;3.00;;;10.00;99.90;;;;;;5033427;28;20179;-73
2021/05/23 00:50:22;;;;;;;4.13;2.87;;;9.90;99.90;;;;;;5033266;28;20177;-73
2021/05/23 00:52:48;;;;;;;3.87;2.73;;;9.90;99.90;;;;;;5001878;28;20204;-73
2021/05/23 00:55:14;;;;;;;4.07;2.63;;;10.00;99.90;;;;;;5000224;28;20195;-73
2021/05/23 00:57:39;;;;;;;4.33;2.90;;;10.00;99.90;;;;;;5032904;28;20182;-72
2021/05/23 01:00:06;;;;;;;4.77;2.70;;;10.00;99.90;;;;;;5033130;28;20181;-73
2021/05/23 01:02:45;;;;;;;3.77;2.57;;;10.10;99.90;;;;;;5033052;28;20906;-73
2021/05/23 01:05:16;;;;;;;3.83;2.53;;;10.00;99.90;;;;;;5017078;28;20173;-73
2021/05/23 01:07:42;;;;;;;4.77;2.70;;;10.00;99.90;;;;;;5000330;28;20341;-73
2021/05/23 01:10:18;;;;;;;3.43;2.27;;;10.00;99.90;;;;;;4999913;28;20664;-73
2021/05/23 01:12:53;;;;;;;3.23;2.20;;;9.90;99.90;;;;;;5016049;28;20213;-73
2021/05/23 01:15:48;;;;;;;3.00;2.20;;;9.90;99.90;;;;;;5033753;28;20192;-73
2021/05/23 01:18:14;;;;;;;3.33;2.40;;;9.90;99.90;;;;;;5023758;28;20204;-73
2021/05/23 01:20:58;;;;;;;2.43;1.97;;;9.90;99.90;;;;;;5015953;28;20183;-73
2021/05/23 01:23:31;;;;;;;2.67;1.97;;;9.90;99.90;;;;;;5015867;28;20592;-73
2021/05/23 01:26:04;;;;;;;2.30;1.87;;;9.80;99.90;;;;;;4999876;28;20549;-73
2021/05/23 01:28:31;;;;;;;3.53;2.37;;;9.90;99.90;;;;;;5017032;28;20523;-73
2021/05/23 01:30:56;;;;;;;2.87;1.77;;;9.90;99.90;;;;;;5016236;28;20177;-73
2021/05/23 01:33:22;;;;;;;3.30;2.10;;;9.90;99.90;;;;;;5016038;28;20237;-73
2021/05/23 01:35:53;;;;;;;3.50;2.20;;;9.80;99.90;;;;;;5016286;28;20195;-73
2021/05/23 01:38:20;;;;;;;2.83;1.70;;;9.70;99.90;;;;;;5000235;28;20195;-73
2021/05/23 01:40:49;;;;;;;2.80;1.70;;;9.70;99.90;;;;;;5015897;28;20598;-73
2021/05/23 01:43:15;;;;;;;2.50;1.87;;;9.80;99.90;;;;;;4999694;28;20218;-73
2021/05/23 01:45:40;;;;;;;2.20;1.60;;;9.70;99.90;;;;;;5015641;28;20593;-73
2021/05/23 01:48:07;;;;;;;2.77;2.13;;;9.80;99.90;;;;;;5031937;28;20182;-73
2021/05/23 01:50:33;;;;;;;3.70;2.00;;;9.80;99.90;;;;;;5032359;28;20719;-74
2021/05/23 01:52:59;;;;;;;2.23;1.67;;;9.80;99.90;;;;;;5015408;28;20205;-73
2021/05/23 01:55:25;;;;;;;3.20;1.83;;;9.80;99.90;;;;;;5015307;28;20183;-73
2021/05/23 01:57:51;;;;;;;3.87;2.27;;;9.80;99.90;;;;;;5015676;28;20265;-73
2021/05/23 02:00:19;;;;;;;2.73;1.90;;;9.70;99.90;;;;;;5031638;28;20601;-74
2021/05/23 02:02:44;;;;;;;2.40;1.90;;;9.70;99.90;;;;;;5032167;28;20217;-73
2021/05/23 02:05:10;;;;;;;3.03;2.27;;;9.70;99.90;;;;;;4999904;28;20188;-73
2021/05/23 02:07:36;;;;;;;2.83;1.90;;;9.70;99.90;;;;;;5031950;28;20777;-73
2021/05/23 02:10:09;;;;;;;3.60;2.63;;;9.70;99.90;;;;;;5016109;28;20265;-73
2021/05/23 02:12:35;;;;;;;3.57;2.40;;;9.70;99.90;;;;;;5016321;28;20218;-73
2021/05/23 02:15:04;;;;;;;5.83;2.37;;;9.70;99.90;;;;;;5014244;28;20187;-73
2021/05/23 02:17:36;;;;;;;3.33;2.23;;;9.60;99.90;;;;;;5015363;28;20191;-73
2021/05/23 02:20:07;;;;;;;3.73;2.47;;;9.60;99.90;;;;;;4999132;28;20185;-73
2021/05/23 22:40:13;;;;;;;1.53;0.97;;;10.90;99.90;;;;;;5112489;27;20644;-79
2021/05/23 22:42:39;;;;;;;1.63;0.90;;;11.00;99.90;;;;;;5111221;28;20184;-78
2021/05/23 22:45:08;;;;;;;2.50;1.00;;;11.00;99.90;;;;;;5094091;28;20176;-78
2021/05/23 22:47:33;;;;;;;1.23;0.90;;;11.00;99.90;;;;;;5092725;28;20249;-79
2021/05/23 22:49:59;;;;;;;1.63;1.10;;;10.90;99.90;;;;;;5073278;28;20596;-78
2021/05/23 22:52:25;;;;;;;2.07;1.00;;;10.80;99.90;;;;;;5074241;28;20709;-78
2021/05/23 22:54:52;;;;;;;1.00;0.87;;;10.80;99.90;;;;;;5060891;28;20177;-79
2021/05/23 22:57:24;;;;;;;0.80;0.80;;;10.80;99.90;;;;;;5084296;28;20184;-78
2021/05/23 22:59:52;;;;;;;1.00;0.87;;;10.80;99.90;;;;;;5085262;28;20248;-78
2021/05/23 23:05:40;;;;;;;1.00;0.70;;;10.80;99.90;;;;;;5095746;28;20665;-80
2021/05/23 23:08:06;;;;;;;1.90;0.80;;;10.80;99.90;;;;;;5065636;28;20611;-78
2021/05/23 23:13:55;;;;;;;2.07;1.03;;;10.80;99.90;;;;;;5096960;28;20203;-79
2021/05/23 23:16:20;;;;;;;1.30;0.90;;;10.70;99.90;;;;;;5084339;28;20171;-79
2021/05/23 23:18:46;;;;;;;1.27;1.00;;;10.70;99.90;;;;;;5068013;28;20260;-79
2021/05/23 23:21:12;;;;;;;1.00;0.90;;;10.60;99.90;;;;;;5066350;28;20192;-78
2021/05/23 23:23:38;;;;;;;1.43;1.00;;;10.50;99.90;;;;;;5058547;28;20185;-78
2021/05/23 23:26:04;;;;;;;0.77;0.77;;;10.50;99.90;;;;;;5055962;28;20673;-79
2021/05/23 23:28:29;;;;;;;1.50;0.90;;;10.50;99.90;;;;;;5072897;28;20204;-78
2021/05/23 23:30:55;;;;;;;2.23;1.10;;;10.40;99.90;;;;;;5089685;28;20511;-78
2021/05/23 23:33:20;;;;;;;1.87;0.90;;;10.40;99.90;;;;;;5089876;28;20229;-78
2021/05/23 23:35:48;;;;;;;1.10;1.00;;;10.40;99.90;;;;;;5073011;28;20176;-78
2021/05/23 23:38:15;;;;;;;1.07;0.97;;;10.40;99.90;;;;;;5072955;28;20196;-78
2021/05/23 23:40:41;;;;;;;0.80;0.70;;;10.40;99.90;;;;;;5064922;28;20296;-78
2021/05/23 23:43:06;;;;;;;1.20;1.03;;;10.30;99.90;;;;;;5065751;28;20216;-79
2021/05/23 23:45:32;;;;;;;1.07;0.97;;;10.40;99.90;;;;;;5066894;28;20180;-78
2021/05/23 23:47:57;;;;;;;1.00;0.80;;;10.40;99.90;;;;;;5065643;28;20223;-78
2021/05/23 23:50:26;;;;;;;1.30;0.97;;;10.40;99.90;;;;;;5081830;28;20222;-78
2021/05/23 23:52:52;;;;;;;1.40;0.90;;;10.40;99.90;;;;;;5049768;28;20654;-79
2021/05/23 23:55:18;;;;;;;0.80;0.80;;;10.30;99.90;;;;;;5065693;28;20220;-78
2021/05/23 23:57:43;;;;;;;1.83;0.97;;;10.30;99.90;;;;;;5046984;28;20191;-78
